Nong Khai, Thailand
Current Conditions -  °F | °C
As of 10:00 AM on Sunday 21 Dec 2014 (Local Time) from VLVT Reporting Station
Haze Haze  
Wind Chill: 72°   Ceiling: Unl
Heat Index: 72°   Visibility: 3mi
Dew Point: 57°   Wind: 5mph
Humidity: 60%   Direction: 90°E
Pressure: 30.03"   Gusts: NA
Location:  17.88°N, 102.74°E
Report Text: VLVT 210300Z 09004KT 5000 BR NSC 22/14 Q1017 NOSIG
Loading
Personal Weather Stations






























Interactive Weather Map New forecast layout! Learn more

10-Day Weather Forecast

Advertisements
Track Severe Weather on mobile